sensor_id;sensor_type;location;lat;lon;timestamp;P1;durP1;ratioP1;P2;durP2;ratioP2
40058;SDS011;25763;49.972;8.568;2023-04-24T00:01:14;10.90;;;10.10;;
40058;SDS011;25763;49.972;8.568;2023-04-24T00:03:40;11.35;;;10.65;;
40058;SDS011;25763;49.972;8.568;2023-04-24T00:06:06;11.20;;;10.50;;
40058;SDS011;25763;49.972;8.568;2023-04-24T00:08:33;10.82;;;10.18;;
40058;SDS011;25763;49.972;8.568;2023-04-24T00:11:01;11.85;;;11.15;;
40058;SDS011;25763;49.972;8.568;2023-04-24T00:13:26;13.15;;;12.25;;
40058;SDS011;25763;49.972;8.568;2023-04-24T00:15:53;12.80;;;12.07;;
40058;SDS011;25763;49.972;8.568;2023-04-24T00:18:19;12.65;;;11.93;;
40058;SDS011;25763;49.972;8.568;2023-04-24T00:20:45;12.32;;;11.63;;
40058;SDS011;25763;49.972;8.568;2023-04-24T00:23:11;14.07;;;13.18;;
40058;SDS011;25763;49.972;8.568;2023-04-24T00:25:37;12.85;;;12.10;;
40058;SDS011;25763;49.972;8.568;2023-04-24T00:28:02;13.05;;;12.25;;
40058;SDS011;25763;49.972;8.568;2023-04-24T00:30:27;13.18;;;12.40;;
40058;SDS011;25763;49.972;8.568;2023-04-24T00:32:53;12.13;;;11.43;;
40058;SDS011;25763;49.972;8.568;2023-04-24T00:35:19;11.45;;;10.75;;
40058;SDS011;25763;49.972;8.568;2023-04-24T00:37:45;11.55;;;10.85;;
40058;SDS011;25763;49.972;8.568;2023-04-24T00:40:11;11.98;;;11.27;;
40058;SDS011;25763;49.972;8.568;2023-04-24T00:42:36;11.57;;;10.88;;
40058;SDS011;25763;49.972;8.568;2023-04-24T00:45:02;11.75;;;10.95;;
40058;SDS011;25763;49.972;8.568;2023-04-24T00:47:28;11.95;;;11.25;;
40058;SDS011;25763;49.972;8.568;2023-04-24T00:49:54;10.50;;;9.90;;
40058;SDS011;25763;49.972;8.568;2023-04-24T00:52:20;11.77;;;11.07;;
40058;SDS011;25763;49.972;8.568;2023-04-24T00:54:45;12.13;;;11.43;;
40058;SDS011;25763;49.972;8.568;2023-04-24T00:57:11;11.15;;;10.45;;
40058;SDS011;25763;49.972;8.568;2023-04-24T00:59:37;12.20;;;11.50;;
40058;SDS011;25763;49.972;8.568;2023-04-24T01:02:04;11.88;;;11.18;;
40058;SDS011;25763;49.972;8.568;2023-04-24T01:04:30;12.50;;;11.80;;
40058;SDS011;25763;49.972;8.568;2023-04-24T01:06:56;11.85;;;11.15;;
40058;SDS011;25763;49.972;8.568;2023-04-24T01:09:23;12.88;;;12.15;;
40058;SDS011;25763;49.972;8.568;2023-04-24T01:11:49;11.60;;;10.90;;
40058;SDS011;25763;49.972;8.568;2023-04-24T01:14:14;10.80;;;10.15;;
40058;SDS011;25763;49.972;8.568;2023-04-24T01:16:40;12.27;;;11.57;;
40058;SDS011;25763;49.972;8.568;2023-04-24T01:19:06;11.70;;;11.00;;
40058;SDS011;25763;49.972;8.568;2023-04-24T01:21:34;13.60;;;12.80;;
40058;SDS011;25763;49.972;8.568;2023-04-24T01:24:01;12.32;;;11.52;;
40058;SDS011;25763;49.972;8.568;2023-04-24T01:26:27;13.25;;;12.45;;
40058;SDS011;25763;49.972;8.568;2023-04-24T01:28:52;12.02;;;11.32;;
40058;SDS011;25763;49.972;8.568;2023-04-24T01:31:18;12.20;;;11.48;;
40058;SDS011;25763;49.972;8.568;2023-04-24T01:33:44;13.52;;;12.73;;
40058;SDS011;25763;49.972;8.568;2023-04-24T01:36:10;13.35;;;12.55;;
40058;SDS011;25763;49.972;8.568;2023-04-24T01:38:36;13.45;;;12.65;;
40058;SDS011;25763;49.972;8.568;2023-04-24T01:41:02;12.80;;;12.05;;
40058;SDS011;25763;49.972;8.568;2023-04-24T01:43:27;13.70;;;12.90;;
40058;SDS011;25763;49.972;8.568;2023-04-24T01:45:53;14.40;;;13.57;;
40058;SDS011;25763;49.972;8.568;2023-04-24T01:48:19;12.52;;;11.80;;
40058;SDS011;25763;49.972;8.568;2023-04-24T01:50:44;12.70;;;11.95;;
40058;SDS011;25763;49.972;8.568;2023-04-24T01:53:10;12.15;;;11.45;;
40058;SDS011;25763;49.972;8.568;2023-04-24T01:55:36;12.10;;;11.40;;
40058;SDS011;25763;49.972;8.568;2023-04-24T01:58:01;13.75;;;12.95;;
40058;SDS011;25763;49.972;8.568;2023-04-24T02:00:27;12.10;;;11.40;;
40058;SDS011;25763;49.972;8.568;2023-04-24T02:02:52;12.38;;;11.68;;
40058;SDS011;25763;49.972;8.568;2023-04-24T02:05:19;12.45;;;11.75;;
40058;SDS011;25763;49.972;8.568;2023-04-24T02:07:44;11.48;;;10.77;;
40058;SDS011;25763;49.972;8.568;2023-04-24T02:10:10;11.43;;;10.73;;
40058;SDS011;25763;49.972;8.568;2023-04-24T02:12:36;12.20;;;11.50;;
40058;SDS011;25763;49.972;8.568;2023-04-24T02:15:01;11.40;;;10.70;;
40058;SDS011;25763;49.972;8.568;2023-04-24T02:17:27;11.98;;;11.27;;
40058;SDS011;25763;49.972;8.568;2023-04-24T02:19:53;11.65;;;10.95;;
40058;SDS011;25763;49.972;8.568;2023-04-24T02:22:18;13.55;;;12.50;;
40058;SDS011;25763;49.972;8.568;2023-04-24T02:24:44;10.70;;;10.07;;
40058;SDS011;25763;49.972;8.568;2023-04-24T02:27:09;10.63;;;10.00;;
40058;SDS011;25763;49.972;8.568;2023-04-24T02:29:36;12.30;;;11.52;;
40058;SDS011;25763;49.972;8.568;2023-04-24T02:32:01;11.48;;;10.77;;
40058;SDS011;25763;49.972;8.568;2023-04-24T02:34:27;11.18;;;10.50;;
40058;SDS011;25763;49.972;8.568;2023-04-24T02:36:52;10.75;;;10.07;;
40058;SDS011;25763;49.972;8.568;2023-04-24T02:39:19;10.02;;;9.43;;
40058;SDS011;25763;49.972;8.568;2023-04-24T02:41:44;10.35;;;9.50;;
40058;SDS011;25763;49.972;8.568;2023-04-24T02:44:10;10.85;;;10.15;;
40058;SDS011;25763;49.972;8.568;2023-04-24T02:46:35;9.98;;;9.38;;
40058;SDS011;25763;49.972;8.568;2023-04-24T02:49:01;10.35;;;9.65;;
40058;SDS011;25763;49.972;8.568;2023-04-24T02:51:26;10.32;;;9.73;;
40058;SDS011;25763;49.972;8.568;2023-04-24T02:53:52;10.05;;;9.45;;
40058;SDS011;25763;49.972;8.568;2023-04-24T02:56:17;10.07;;;9.48;;
40058;SDS011;25763;49.972;8.568;2023-04-24T02:58:42;10.15;;;9.55;;
40058;SDS011;25763;49.972;8.568;2023-04-24T03:01:08;10.50;;;9.90;;
40058;SDS011;25763;49.972;8.568;2023-04-24T03:03:35;13.25;;;12.35;;
40058;SDS011;25763;49.972;8.568;2023-04-24T03:06:00;10.55;;;9.95;;
40058;SDS011;25763;49.972;8.568;2023-04-24T03:08:26;10.70;;;10.07;;
40058;SDS011;25763;49.972;8.568;2023-04-24T03:10:52;10.63;;;9.98;;
40058;SDS011;25763;49.972;8.568;2023-04-24T03:13:17;12.32;;;11.63;;
40058;SDS011;25763;49.972;8.568;2023-04-24T03:15:42;12.90;;;12.13;;
40058;SDS011;25763;49.972;8.568;2023-04-24T03:18:08;13.68;;;12.88;;
40058;SDS011;25763;49.972;8.568;2023-04-24T03:20:33;13.93;;;13.07;;
40058;SDS011;25763;49.972;8.568;2023-04-24T03:22:58;13.00;;;12.20;;
40058;SDS011;25763;49.972;8.568;2023-04-24T03:25:24;13.27;;;12.48;;
40058;SDS011;25763;49.972;8.568;2023-04-24T03:27:50;14.40;;;13.57;;
40058;SDS011;25763;49.972;8.568;2023-04-24T03:30:15;14.25;;;13.45;;
40058;SDS011;25763;49.972;8.568;2023-04-24T03:32:40;12.73;;;12.00;;
40058;SDS011;25763;49.972;8.568;2023-04-24T03:35:06;13.10;;;12.35;;
40058;SDS011;25763;49.972;8.568;2023-04-24T03:37:33;13.68;;;12.88;;
40058;SDS011;25763;49.972;8.568;2023-04-24T03:39:59;13.05;;;12.27;;
40058;SDS011;25763;49.972;8.568;2023-04-24T03:42:24;13.10;;;12.32;;
40058;SDS011;25763;49.972;8.568;2023-04-24T03:44:49;13.93;;;12.93;;
40058;SDS011;25763;49.972;8.568;2023-04-24T03:47:15;13.05;;;12.30;;
40058;SDS011;25763;49.972;8.568;2023-04-24T03:49:40;12.30;;;11.55;;
40058;SDS011;25763;49.972;8.568;2023-04-24T03:52:06;11.60;;;10.90;;
40058;SDS011;25763;49.972;8.568;2023-04-24T03:54:31;11.75;;;11.02;;
40058;SDS011;25763;49.972;8.568;2023-04-24T03:56:56;12.15;;;11.45;;
40058;SDS011;25763;49.972;8.568;2023-04-24T03:59:22;10.35;;;9.75;;
40058;SDS011;25763;49.972;8.568;2023-04-24T04:01:47;10.23;;;9.63;;
40058;SDS011;25763;49.972;8.568;2023-04-24T04:04:12;10.60;;;9.98;;
40058;SDS011;25763;49.972;8.568;2023-04-24T04:06:38;9.80;;;9.20;;
40058;SDS011;25763;49.972;8.568;2023-04-24T04:09:03;8.77;;;8.23;;
40058;SDS011;25763;49.972;8.568;2023-04-24T04:11:29;9.00;;;8.40;;
40058;SDS011;25763;49.972;8.568;2023-04-24T04:13:55;9.05;;;8.45;;
40058;SDS011;25763;49.972;8.568;2023-04-24T04:16:21;9.85;;;9.25;;
40058;SDS011;25763;49.972;8.568;2023-04-24T04:18:47;8.90;;;8.30;;
40058;SDS011;25763;49.972;8.568;2023-04-24T04:21:12;9.45;;;8.85;;
40058;SDS011;25763;49.972;8.568;2023-04-24T04:23:38;8.85;;;8.25;;
40058;SDS011;25763;49.972;8.568;2023-04-24T04:26:04;7.60;;;7.10;;
40058;SDS011;25763;49.972;8.568;2023-04-24T04:28:30;8.40;;;7.90;;
40058;SDS011;25763;49.972;8.568;2023-04-24T04:30:56;8.77;;;8.20;;
40058;SDS011;25763;49.972;8.568;2023-04-24T04:33:23;8.00;;;7.50;;
40058;SDS011;25763;49.972;8.568;2023-04-24T04:35:49;8.70;;;8.10;;
40058;SDS011;25763;49.972;8.568;2023-04-24T04:38:17;9.15;;;8.55;;
40058;SDS011;25763;49.972;8.568;2023-04-24T04:40:43;8.77;;;8.20;;
40058;SDS011;25763;49.972;8.568;2023-04-24T04:43:08;8.93;;;8.32;;
40058;SDS011;25763;49.972;8.568;2023-04-24T04:45:35;8.90;;;8.30;;
40058;SDS011;25763;49.972;8.568;2023-04-24T04:48:00;8.45;;;7.95;;
40058;SDS011;25763;49.972;8.568;2023-04-24T04:50:27;8.88;;;8.27;;
40058;SDS011;25763;49.972;8.568;2023-04-24T04:52:52;8.48;;;7.97;;
40058;SDS011;25763;49.972;8.568;2023-04-24T04:55:18;7.90;;;7.40;;
40058;SDS011;25763;49.972;8.568;2023-04-24T04:57:45;8.75;;;8.15;;
40058;SDS011;25763;49.972;8.568;2023-04-24T05:00:11;8.95;;;8.35;;
40058;SDS011;25763;49.972;8.568;2023-04-24T05:02:37;8.85;;;8.27;;
40058;SDS011;25763;49.972;8.568;2023-04-24T05:05:03;8.55;;;8.05;;
40058;SDS011;25763;49.972;8.568;2023-04-24T05:07:28;10.07;;;9.48;;
40058;SDS011;25763;49.972;8.568;2023-04-24T05:09:54;9.07;;;8.48;;
40058;SDS011;25763;49.972;8.568;2023-04-24T05:12:19;8.68;;;8.18;;
40058;SDS011;25763;49.972;8.568;2023-04-24T05:14:44;9.35;;;8.75;;
40058;SDS011;25763;49.972;8.568;2023-04-24T05:17:10;9.30;;;8.70;;
40058;SDS011;25763;49.972;8.568;2023-04-24T05:19:35;9.45;;;8.85;;
40058;SDS011;25763;49.972;8.568;2023-04-24T05:22:02;11.10;;;10.40;;
40058;SDS011;25763;49.972;8.568;2023-04-24T05:24:30;10.85;;;10.15;;
40058;SDS011;25763;49.972;8.568;2023-04-24T05:26:55;10.15;;;9.45;;
40058;SDS011;25763;49.972;8.568;2023-04-24T05:29:22;11.07;;;10.38;;
40058;SDS011;25763;49.972;8.568;2023-04-24T05:31:47;11.18;;;10.48;;
40058;SDS011;25763;49.972;8.568;2023-04-24T05:34:12;10.70;;;10.00;;
40058;SDS011;25763;49.972;8.568;2023-04-24T05:36:39;11.00;;;10.30;;
40058;SDS011;25763;49.972;8.568;2023-04-24T05:39:04;12.00;;;11.30;;
40058;SDS011;25763;49.972;8.568;2023-04-24T05:41:30;10.85;;;10.20;;
40058;SDS011;25763;49.972;8.568;2023-04-24T05:43:55;10.82;;;10.13;;
40058;SDS011;25763;49.972;8.568;2023-04-24T05:46:20;12.20;;;11.30;;
40058;SDS011;25763;49.972;8.568;2023-04-24T05:48:46;10.98;;;10.27;;
40058;SDS011;25763;49.972;8.568;2023-04-24T05:51:12;11.80;;;11.10;;
40058;SDS011;25763;49.972;8.568;2023-04-24T05:53:37;12.32;;;11.63;;
40058;SDS011;25763;49.972;8.568;2023-04-24T05:56:02;9.70;;;9.10;;
40058;SDS011;25763;49.972;8.568;2023-04-24T05:58:28;10.05;;;9.45;;
40058;SDS011;25763;49.972;8.568;2023-04-24T06:00:53;9.98;;;9.38;;
40058;SDS011;25763;49.972;8.568;2023-04-24T06:03:20;9.35;;;8.75;;
40058;SDS011;25763;49.972;8.568;2023-04-24T06:05:45;10.90;;;10.20;;
40058;SDS011;25763;49.972;8.568;2023-04-24T06:08:11;10.38;;;9.75;;
40058;SDS011;25763;49.972;8.568;2023-04-24T06:10:36;10.95;;;10.30;;
40058;SDS011;25763;49.972;8.568;2023-04-24T06:13:01;11.88;;;11.07;;
40058;SDS011;25763;49.972;8.568;2023-04-24T06:15:28;12.52;;;11.82;;
40058;SDS011;25763;49.972;8.568;2023-04-24T06:17:55;12.98;;;12.18;;
40058;SDS011;25763;49.972;8.568;2023-04-24T06:20:21;13.80;;;13.00;;
40058;SDS011;25763;49.972;8.568;2023-04-24T06:22:46;12.85;;;12.07;;
40058;SDS011;25763;49.972;8.568;2023-04-24T06:25:12;12.27;;;11.57;;
40058;SDS011;25763;49.972;8.568;2023-04-24T06:27:37;12.50;;;11.75;;
40058;SDS011;25763;49.972;8.568;2023-04-24T06:30:02;13.63;;;12.82;;
40058;SDS011;25763;49.972;8.568;2023-04-24T06:32:28;13.15;;;12.15;;
40058;SDS011;25763;49.972;8.568;2023-04-24T06:34:53;12.10;;;11.40;;
40058;SDS011;25763;49.972;8.568;2023-04-24T06:37:22;10.90;;;10.20;;
40058;SDS011;25763;49.972;8.568;2023-04-24T06:39:48;12.05;;;11.25;;
40058;SDS011;25763;49.972;8.568;2023-04-24T06:42:13;12.20;;;11.50;;
40058;SDS011;25763;49.972;8.568;2023-04-24T06:44:38;12.30;;;11.60;;
40058;SDS011;25763;49.972;8.568;2023-04-24T06:47:08;11.52;;;10.82;;
40058;SDS011;25763;49.972;8.568;2023-04-24T06:49:34;12.15;;;11.45;;
40058;SDS011;25763;49.972;8.568;2023-04-24T06:52:00;11.45;;;10.75;;
40058;SDS011;25763;49.972;8.568;2023-04-24T06:54:25;11.80;;;11.10;;
40058;SDS011;25763;49.972;8.568;2023-04-24T06:56:51;11.52;;;10.82;;
40058;SDS011;25763;49.972;8.568;2023-04-24T06:59:17;10.43;;;9.82;;
40058;SDS011;25763;49.972;8.568;2023-04-24T07:01:42;11.10;;;10.40;;
40058;SDS011;25763;49.972;8.568;2023-04-24T07:04:07;11.07;;;10.38;;
40058;SDS011;25763;49.972;8.568;2023-04-24T07:06:33;10.52;;;9.82;;
40058;SDS011;25763;49.972;8.568;2023-04-24T07:09:00;10.20;;;9.60;;
40058;SDS011;25763;49.972;8.568;2023-04-24T07:11:26;10.55;;;9.85;;
40058;SDS011;25763;49.972;8.568;2023-04-24T07:13:54;10.43;;;9.73;;
40058;SDS011;25763;49.972;8.568;2023-04-24T07:16:20;10.13;;;9.52;;
40058;SDS011;25763;49.972;8.568;2023-04-24T07:18:45;9.73;;;9.13;;
40058;SDS011;25763;49.972;8.568;2023-04-24T07:21:11;9.65;;;9.05;;
40058;SDS011;25763;49.972;8.568;2023-04-24T07:23:36;10.65;;;9.95;;
40058;SDS011;25763;49.972;8.568;2023-04-24T07:26:02;10.82;;;10.13;;
40058;SDS011;25763;49.972;8.568;2023-04-24T07:28:27;9.50;;;8.90;;
40058;SDS011;25763;49.972;8.568;2023-04-24T07:30:56;10.35;;;9.65;;
40058;SDS011;25763;49.972;8.568;2023-04-24T07:33:22;9.90;;;9.30;;
40058;SDS011;25763;49.972;8.568;2023-04-24T07:35:47;9.55;;;8.95;;
40058;SDS011;25763;49.972;8.568;2023-04-24T07:38:13;9.02;;;8.43;;
40058;SDS011;25763;49.972;8.568;2023-04-24T07:40:38;9.68;;;9.07;;
40058;SDS011;25763;49.972;8.568;2023-04-24T07:43:03;10.50;;;9.90;;
40058;SDS011;25763;49.972;8.568;2023-04-24T07:45:29;9.00;;;8.40;;
40058;SDS011;25763;49.972;8.568;2023-04-24T07:47:56;10.10;;;9.50;;
40058;SDS011;25763;49.972;8.568;2023-04-24T07:50:21;9.48;;;8.88;;
40058;SDS011;25763;49.972;8.568;2023-04-24T07:52:47;9.88;;;9.25;;
40058;SDS011;25763;49.972;8.568;2023-04-24T07:55:12;9.75;;;9.15;;
40058;SDS011;25763;49.972;8.568;2023-04-24T07:57:38;9.57;;;8.98;;
40058;SDS011;25763;49.972;8.568;2023-04-24T08:00:03;9.50;;;8.90;;
40058;SDS011;25763;49.972;8.568;2023-04-24T08:02:30;10.43;;;9.75;;
40058;SDS011;25763;49.972;8.568;2023-04-24T08:04:56;10.02;;;9.43;;
40058;SDS011;25763;49.972;8.568;2023-04-24T08:07:21;9.50;;;8.82;;
40058;SDS011;25763;49.972;8.568;2023-04-24T08:09:48;10.70;;;10.05;;
40058;SDS011;25763;49.972;8.568;2023-04-24T08:12:13;10.15;;;9.55;;
40058;SDS011;25763;49.972;8.568;2023-04-24T08:14:39;10.55;;;9.85;;
40058;SDS011;25763;49.972;8.568;2023-04-24T08:17:04;9.85;;;9.25;;
40058;SDS011;25763;49.972;8.568;2023-04-24T08:19:30;10.27;;;9.60;;
40058;SDS011;25763;49.972;8.568;2023-04-24T08:21:55;9.88;;;9.27;;
40058;SDS011;25763;49.972;8.568;2023-04-24T08:24:20;10.15;;;9.55;;
40058;SDS011;25763;49.972;8.568;2023-04-24T08:26:47;10.90;;;10.25;;
40058;SDS011;25763;49.972;8.568;2023-04-24T08:29:15;10.90;;;10.25;;
40058;SDS011;25763;49.972;8.568;2023-04-24T08:31:41;12.15;;;11.45;;
40058;SDS011;25763;49.972;8.568;2023-04-24T08:34:06;11.95;;;11.25;;
40058;SDS011;25763;49.972;8.568;2023-04-24T08:36:31;12.10;;;11.40;;
40058;SDS011;25763;49.972;8.568;2023-04-24T08:38:57;11.90;;;11.20;;
40058;SDS011;25763;49.972;8.568;2023-04-24T08:41:22;11.45;;;10.75;;
40058;SDS011;25763;49.972;8.568;2023-04-24T08:43:51;12.30;;;11.60;;
40058;SDS011;25763;49.972;8.568;2023-04-24T08:46:16;12.32;;;11.63;;
40058;SDS011;25763;49.972;8.568;2023-04-24T08:48:43;12.13;;;11.40;;
40058;SDS011;25763;49.972;8.568;2023-04-24T08:51:09;12.48;;;11.77;;
40058;SDS011;25763;49.972;8.568;2023-04-24T08:53:35;12.43;;;11.73;;
40058;SDS011;25763;49.972;8.568;2023-04-24T08:56:01;11.85;;;11.15;;
40058;SDS011;25763;49.972;8.568;2023-04-24T08:58:27;11.73;;;11.02;;
40058;SDS011;25763;49.972;8.568;2023-04-24T09:00:56;11.18;;;10.48;;
40058;SDS011;25763;49.972;8.568;2023-04-24T09:03:23;11.70;;;11.00;;
40058;SDS011;25763;49.972;8.568;2023-04-24T09:05:50;11.48;;;10.77;;
40058;SDS011;25763;49.972;8.568;2023-04-24T09:08:17;10.45;;;9.85;;
40058;SDS011;25763;49.972;8.568;2023-04-24T09:10:44;11.60;;;10.90;;
40058;SDS011;25763;49.972;8.568;2023-04-24T09:13:09;10.02;;;9.43;;
40058;SDS011;25763;49.972;8.568;2023-04-24T09:15:35;9.30;;;8.70;;
40058;SDS011;25763;49.972;8.568;2023-04-24T09:18:01;9.93;;;9.32;;
40058;SDS011;25763;49.972;8.568;2023-04-24T09:20:27;9.55;;;8.95;;
40058;SDS011;25763;49.972;8.568;2023-04-24T09:22:59;11.20;;;10.40;;
40058;SDS011;25763;49.972;8.568;2023-04-24T09:25:31;9.30;;;8.70;;
40058;SDS011;25763;49.972;8.568;2023-04-24T09:27:59;10.30;;;9.70;;
40058;SDS011;25763;49.972;8.568;2023-04-24T09:30:27;10.15;;;9.48;;
40058;SDS011;25763;49.972;8.568;2023-04-24T09:33:12;10.23;;;9.63;;
40058;SDS011;25763;49.972;8.568;2023-04-24T09:35:43;10.57;;;9.88;;
40058;SDS011;25763;49.972;8.568;2023-04-24T09:38:14;9.68;;;9.07;;
40058;SDS011;25763;49.972;8.568;2023-04-24T09:40:40;9.55;;;8.95;;
40058;SDS011;25763;49.972;8.568;2023-04-24T09:43:09;10.07;;;9.48;;
40058;SDS011;25763;49.972;8.568;2023-04-24T09:45:36;9.50;;;8.90;;
40058;SDS011;25763;49.972;8.568;2023-04-24T09:48:03;9.02;;;8.43;;
40058;SDS011;25763;49.972;8.568;2023-04-24T09:50:30;9.48;;;8.88;;
40058;SDS011;25763;49.972;8.568;2023-04-24T09:53:03;9.50;;;8.90;;
40058;SDS011;25763;49.972;8.568;2023-04-24T09:55:32;9.85;;;9.25;;
40058;SDS011;25763;49.972;8.568;2023-04-24T09:57:58;8.90;;;8.30;;
40058;SDS011;25763;49.972;8.568;2023-04-24T10:00:31;9.88;;;9.27;;
40058;SDS011;25763;49.972;8.568;2023-04-24T10:03:01;10.70;;;9.90;;
40058;SDS011;25763;49.972;8.568;2023-04-24T10:05:32;11.02;;;10.32;;
40058;SDS011;25763;49.972;8.568;2023-04-24T10:08:08;10.50;;;9.80;;
40058;SDS011;25763;49.972;8.568;2023-04-24T10:10:45;9.82;;;9.23;;
40058;SDS011;25763;49.972;8.568;2023-04-24T10:13:11;10.00;;;9.40;;
40058;SDS011;25763;49.972;8.568;2023-04-24T10:15:38;10.40;;;9.80;;
40058;SDS011;25763;49.972;8.568;2023-04-24T10:18:05;10.50;;;9.80;;
40058;SDS011;25763;49.972;8.568;2023-04-24T10:20:31;10.73;;;10.02;;
40058;SDS011;25763;49.972;8.568;2023-04-24T10:22:58;9.80;;;9.20;;
40058;SDS011;25763;49.972;8.568;2023-04-24T10:25:32;10.00;;;9.30;;
40058;SDS011;25763;49.972;8.568;2023-04-24T10:27:59;9.38;;;8.77;;
40058;SDS011;25763;49.972;8.568;2023-04-24T10:30:26;10.15;;;9.45;;
40058;SDS011;25763;49.972;8.568;2023-04-24T10:32:55;10.20;;;9.60;;
40058;SDS011;25763;49.972;8.568;2023-04-24T10:35:21;9.88;;;9.27;;
40058;SDS011;25763;49.972;8.568;2023-04-24T10:37:51;11.07;;;10.38;;
40058;SDS011;25763;49.972;8.568;2023-04-24T10:40:18;12.10;;;11.30;;
40058;SDS011;25763;49.972;8.568;2023-04-24T10:42:51;12.70;;;12.00;;
40058;SDS011;25763;49.972;8.568;2023-04-24T10:45:18;12.45;;;11.73;;
40058;SDS011;25763;49.972;8.568;2023-04-24T10:47:53;12.02;;;11.32;;
40058;SDS011;25763;49.972;8.568;2023-04-24T10:50:21;10.27;;;9.68;;
40058;SDS011;25763;49.972;8.568;2023-04-24T10:52:47;9.90;;;9.30;;
40058;SDS011;25763;49.972;8.568;2023-04-24T10:55:15;9.57;;;8.98;;
40058;SDS011;25763;49.972;8.568;2023-04-24T10:58:00;9.05;;;8.45;;
40058;SDS011;25763;49.972;8.568;2023-04-24T11:00:29;9.82;;;9.23;;
40058;SDS011;25763;49.972;8.568;2023-04-24T11:02:54;11.40;;;10.70;;
40058;SDS011;25763;49.972;8.568;2023-04-24T11:05:21;9.52;;;8.93;;
40058;SDS011;25763;49.972;8.568;2023-04-24T11:10:39;11.43;;;10.73;;
40058;SDS011;25763;49.972;8.568;2023-04-24T11:13:06;12.20;;;11.50;;
40058;SDS011;25763;49.972;8.568;2023-04-24T11:15:31;10.90;;;10.23;;
40058;SDS011;25763;49.972;8.568;2023-04-24T11:17:57;10.85;;;10.05;;
40058;SDS011;25763;49.972;8.568;2023-04-24T11:20:23;11.32;;;10.63;;
40058;SDS011;25763;49.972;8.568;2023-04-24T11:22:50;11.35;;;10.68;;
40058;SDS011;25763;49.972;8.568;2023-04-24T11:25:17;11.85;;;11.15;;
40058;SDS011;25763;49.972;8.568;2023-04-24T11:27:43;11.73;;;11.02;;
40058;SDS011;25763;49.972;8.568;2023-04-24T11:30:11;10.07;;;9.48;;
40058;SDS011;25763;49.972;8.568;2023-04-24T11:32:37;11.77;;;11.07;;
40058;SDS011;25763;49.972;8.568;2023-04-24T11:37:40;11.43;;;10.73;;
40058;SDS011;25763;49.972;8.568;2023-04-24T11:40:08;10.43;;;9.82;;
40058;SDS011;25763;49.972;8.568;2023-04-24T11:42:39;10.52;;;9.93;;
40058;SDS011;25763;49.972;8.568;2023-04-24T11:45:09;9.73;;;9.13;;
40058;SDS011;25763;49.972;8.568;2023-04-24T11:47:43;9.43;;;8.82;;
40058;SDS011;25763;49.972;8.568;2023-04-24T11:50:19;10.38;;;9.77;;
40058;SDS011;25763;49.972;8.568;2023-04-24T11:52:47;10.18;;;9.57;;
40058;SDS011;25763;49.972;8.568;2023-04-24T11:57:39;10.27;;;9.68;;
40058;SDS011;25763;49.972;8.568;2023-04-24T12:00:09;10.82;;;10.15;;
40058;SDS011;25763;49.972;8.568;2023-04-24T12:05:05;9.30;;;8.70;;
40058;SDS011;25763;49.972;8.568;2023-04-24T12:07:31;10.02;;;9.32;;
40058;SDS011;25763;49.972;8.568;2023-04-24T12:10:07;10.10;;;9.50;;
40058;SDS011;25763;49.972;8.568;2023-04-24T12:12:34;10.85;;;10.15;;
40058;SDS011;25763;49.972;8.568;2023-04-24T12:15:01;10.98;;;10.27;;
40058;SDS011;25763;49.972;8.568;2023-04-24T12:17:31;12.27;;;11.48;;
40058;SDS011;25763;49.972;8.568;2023-04-24T12:20:03;11.07;;;10.38;;
40058;SDS011;25763;49.972;8.568;2023-04-24T12:22:46;10.40;;;9.75;;
40058;SDS011;25763;49.972;8.568;2023-04-24T12:25:15;9.45;;;8.85;;
40058;SDS011;25763;49.972;8.568;2023-04-24T12:27:43;10.75;;;10.10;;
40058;SDS011;25763;49.972;8.568;2023-04-24T12:30:18;11.23;;;10.52;;
40058;SDS011;25763;49.972;8.568;2023-04-24T12:32:45;10.30;;;9.70;;
40058;SDS011;25763;49.972;8.568;2023-04-24T12:35:11;9.32;;;8.73;;
40058;SDS011;25763;49.972;8.568;2023-04-24T12:37:37;10.25;;;9.65;;
40058;SDS011;25763;49.972;8.568;2023-04-24T12:40:10;9.90;;;9.30;;
40058;SDS011;25763;49.972;8.568;2023-04-24T12:42:44;10.02;;;9.43;;
40058;SDS011;25763;49.972;8.568;2023-04-24T12:45:11;11.18;;;10.48;;
40058;SDS011;25763;49.972;8.568;2023-04-24T12:47:37;11.90;;;11.18;;
40058;SDS011;25763;49.972;8.568;2023-04-24T12:50:04;11.30;;;10.60;;
40058;SDS011;25763;49.972;8.568;2023-04-24T12:52:30;12.32;;;11.63;;
40058;SDS011;25763;49.972;8.568;2023-04-24T12:54:56;11.63;;;10.93;;
40058;SDS011;25763;49.972;8.568;2023-04-24T12:57:24;12.68;;;11.95;;
40058;SDS011;25763;49.972;8.568;2023-04-24T12:59:50;11.68;;;10.90;;
40058;SDS011;25763;49.972;8.568;2023-04-24T13:02:17;10.05;;;9.40;;
40058;SDS011;25763;49.972;8.568;2023-04-24T13:04:49;11.77;;;11.07;;
40058;SDS011;25763;49.972;8.568;2023-04-24T13:07:15;12.75;;;12.00;;
40058;SDS011;25763;49.972;8.568;2023-04-24T13:09:41;13.07;;;12.27;;
40058;SDS011;25763;49.972;8.568;2023-04-24T13:12:07;11.18;;;10.48;;
40058;SDS011;25763;49.972;8.568;2023-04-24T13:14:33;12.30;;;11.50;;
40058;SDS011;25763;49.972;8.568;2023-04-24T13:16:59;11.35;;;10.65;;
40058;SDS011;25763;49.972;8.568;2023-04-24T13:19:24;10.73;;;10.02;;
40058;SDS011;25763;49.972;8.568;2023-04-24T13:21:54;9.77;;;9.18;;
40058;SDS011;25763;49.972;8.568;2023-04-24T13:24:21;11.98;;;11.18;;
40058;SDS011;25763;49.972;8.568;2023-04-24T13:26:49;12.07;;;11.38;;
40058;SDS011;25763;49.972;8.568;2023-04-24T13:29:15;12.23;;;11.52;;
40058;SDS011;25763;49.972;8.568;2023-04-24T13:31:40;11.70;;;11.00;;
40058;SDS011;25763;49.972;8.568;2023-04-24T13:34:06;12.13;;;11.43;;
40058;SDS011;25763;49.972;8.568;2023-04-24T13:36:31;11.68;;;10.98;;
40058;SDS011;25763;49.972;8.568;2023-04-24T13:38:56;12.45;;;11.60;;
40058;SDS011;25763;49.972;8.568;2023-04-24T13:41:22;12.05;;;11.35;;
40058;SDS011;25763;49.972;8.568;2023-04-24T13:43:47;11.85;;;11.15;;
40058;SDS011;25763;49.972;8.568;2023-04-24T13:46:12;13.18;;;12.38;;
40058;SDS011;25763;49.972;8.568;2023-04-24T13:48:38;12.13;;;11.43;;
40058;SDS011;25763;49.972;8.568;2023-04-24T13:51:03;12.52;;;11.82;;
40058;SDS011;25763;49.972;8.568;2023-04-24T13:53:29;11.00;;;10.32;;
40058;SDS011;25763;49.972;8.568;2023-04-24T13:55:54;10.00;;;9.40;;
40058;SDS011;25763;49.972;8.568;2023-04-24T13:58:20;11.60;;;10.90;;
40058;SDS011;25763;49.972;8.568;2023-04-24T14:00:45;9.98;;;9.38;;
40058;SDS011;25763;49.972;8.568;2023-04-24T14:03:11;10.82;;;10.07;;
40058;SDS011;25763;49.972;8.568;2023-04-24T14:05:36;9.45;;;8.85;;
40058;SDS011;25763;49.972;8.568;2023-04-24T14:08:02;11.65;;;10.95;;
40058;SDS011;25763;49.972;8.568;2023-04-24T14:10:27;10.70;;;10.05;;
40058;SDS011;25763;49.972;8.568;2023-04-24T14:12:53;11.43;;;10.73;;
40058;SDS011;25763;49.972;8.568;2023-04-24T14:15:18;11.85;;;11.15;;
40058;SDS011;25763;49.972;8.568;2023-04-24T14:17:44;11.45;;;10.75;;
40058;SDS011;25763;49.972;8.568;2023-04-24T14:20:09;11.45;;;10.75;;
40058;SDS011;25763;49.972;8.568;2023-04-24T14:22:35;11.23;;;10.52;;
40058;SDS011;25763;49.972;8.568;2023-04-24T14:25:01;11.43;;;10.73;;
40058;SDS011;25763;49.972;8.568;2023-04-24T14:27:26;12.27;;;11.50;;
40058;SDS011;25763;49.972;8.568;2023-04-24T14:29:52;11.65;;;10.95;;
40058;SDS011;25763;49.972;8.568;2023-04-24T14:32:17;12.75;;;12.00;;
40058;SDS011;25763;49.972;8.568;2023-04-24T14:34:43;12.07;;;11.38;;
40058;SDS011;25763;49.972;8.568;2023-04-24T14:37:08;13.38;;;12.38;;